Time,TemperatureF,DewpointF,PressureIn,WindDirection,WindDirectionDegrees,WindSpeedMPH,WindSpeedGustMPH,Humidity,HourlyPrecipIn,Conditions,Clouds,dailyrainin,SolarRadiationWatts/m^2,SoftwareType,DateUTC
2013-01-15 00:00:00,10.5,4.7,30.30,SSW,212,3.0,7.0,77,0.00,,,0.00,0,Wunderground v.1.15,2013-01-15 06:00:00,
2013-01-15 00:05:00,10.5,4.7,30.30,SSW,211,3.0,7.0,77,0.00,,,0.00,0,Wunderground v.1.15,2013-01-15 06:05:00,
2013-01-15 00:15:00,10.5,4.7,30.30,SSW,212,3.0,3.0,77,0.00,,,0.00,0,Wunderground v.1.15,2013-01-15 06:15:00,
2013-01-15 00:20:00,10.4,4.6,30.30,SSW,211,3.0,3.0,77,0.00,,,0.00,0,Wunderground v.1.15,2013-01-15 06:20:00,
2013-01-15 00:30:00,10.1,4.6,30.29,SSW,212,2.0,2.0,78,0.00,,,0.00,0,Wunderground v.1.15,2013-01-15 06:30:00,
2013-01-15 00:35:00,10.0,4.5,30.29,SSW,211,2.0,2.0,78,0.00,,,0.00,0,Wunderground v.1.15,2013-01-15 06:35:00,
2013-01-15 00:40:00,9.9,4.4,30.29,SSW,212,1.0,1.0,78,0.00,,,0.00,0,Wunderground v.1.15,2013-01-15 06:40:00,
2013-01-15 00:45:00,10.1,4.9,30.29,SSW,212,1.0,3.0,79,0.00,,,0.00,0,Wunderground v.1.15,2013-01-15 06:45:00,
2013-01-15 00:50:00,10.4,5.2,30.29,SSW,211,2.0,2.0,79,0.00,,,0.00,0,Wunderground v.1.15,2013-01-15 06:50:00,
2013-01-15 01:00:00,10.8,5.8,30.29,SSW,212,2.0,2.0,80,0.00,,,0.00,0,Wunderground v.1.15,2013-01-15 07:00:00,
2013-01-15 01:05:00,11.0,6.0,30.29,SSW,211,2.0,2.0,80,0.00,,,0.00,0,Wunderground v.1.15,2013-01-15 07:05:00,
2013-01-15 01:15:00,12.2,7.2,30.28,SSW,212,3.0,6.0,80,0.00,,,0.00,0,Wunderground v.1.15,2013-01-15 07:15:00,
2013-01-15 01:20:00,12.9,7.9,30.28,SSW,212,4.0,7.0,80,0.00,,,0.00,0,Wunderground v.1.15,2013-01-15 07:20:00,
2013-01-15 01:25:00,13.4,8.1,30.28,SSW,211,5.0,7.0,79,0.00,,,0.00,0,Wunderground v.1.15,2013-01-15 07:25:00,
2013-01-15 01:35:00,13.6,8.3,30.28,SSW,212,4.0,5.0,79,0.00,,,0.00,0,Wunderground v.1.15,2013-01-15 07:35:00,
2013-01-15 01:40:00,13.7,8.4,30.28,SSW,212,4.0,5.0,79,0.00,,,0.00,0,Wunderground v.1.15,2013-01-15 07:40:00,
2013-01-15 01:45:00,13.9,8.6,30.28,SSW,211,4.0,6.0,79,0.00,,,0.00,0,Wunderground v.1.15,2013-01-15 07:45:00,
2013-01-15 01:50:00,14.0,8.7,30.28,SSW,212,5.0,5.0,79,0.00,,,0.00,0,Wunderground v.1.15,2013-01-15 07:50:00,
2013-01-15 01:55:00,14.0,8.4,30.28,SSW,212,5.0,7.0,78,0.00,,,0.00,0,Wunderground v.1.15,2013-01-15 07:55:00,
2013-01-15 02:00:00,14.1,8.5,30.29,SSW,212,5.0,5.0,78,0.00,,,0.00,0,Wunderground v.1.15,2013-01-15 08:00:00,
2013-01-15 02:05:00,14.1,8.5,30.29,SSW,212,5.0,7.0,78,0.00,,,0.00,0,Wunderground v.1.15,2013-01-15 08:05:00,
2013-01-15 02:15:00,13.9,8.3,30.28,SSW,211,5.0,6.0,78,0.00,,,0.00,0,Wunderground v.1.15,2013-01-15 08:15:00,
2013-01-15 02:20:00,13.8,8.2,30.28,SSW,212,6.0,6.0,78,0.00,,,0.00,0,Wunderground v.1.15,2013-01-15 08:20:00,
2013-01-15 02:25:00,13.6,8.0,30.28,SSW,212,6.0,7.0,78,0.00,,,0.00,0,Wunderground v.1.15,2013-01-15 08:25:00,
2013-01-15 02:30:00,13.6,8.0,30.29,SSW,211,5.0,5.0,78,0.00,,,0.00,0,Wunderground v.1.15,2013-01-15 08:30:00,
2013-01-15 02:40:00,13.3,8.0,30.29,SSW,212,5.0,5.0,79,0.00,,,0.00,0,Wunderground v.1.15,2013-01-15 08:40:00,
2013-01-15 02:45:00,13.1,7.8,30.28,SSW,212,4.0,6.0,79,0.00,,,0.00,0,Wunderground v.1.15,2013-01-15 08:45:00,
2013-01-15 02:50:00,13.0,7.7,30.28,SSW,212,4.0,6.0,79,0.00,,,0.00,0,Wunderground v.1.15,2013-01-15 08:50:00,
2013-01-15 02:55:00,12.8,7.5,30.28,SSW,211,5.0,6.0,79,0.00,,,0.00,0,Wunderground v.1.15,2013-01-15 08:55:00,
2013-01-15 03:05:00,12.5,7.2,30.29,SSW,212,3.0,4.0,79,0.00,,,0.00,0,Wunderground v.1.15,2013-01-15 09:05:00,
2013-01-15 03:15:00,12.3,7.3,30.28,SSW,211,3.0,3.0,80,0.00,,,0.00,0,Wunderground v.1.15,2013-01-15 09:15:00,
2013-01-15 03:20:00,12.2,7.2,30.28,SSW,212,3.0,6.0,80,0.00,,,0.00,0,Wunderground v.1.15,2013-01-15 09:20:00,
2013-01-15 03:25:00,12.1,7.1,30.28,SSW,212,3.0,6.0,80,0.00,,,0.00,0,Wunderground v.1.15,2013-01-15 09:25:00,
2013-01-15 03:30:00,12.0,7.0,30.28,SSW,212,3.0,3.0,80,0.00,,,0.00,0,Wunderground v.1.15,2013-01-15 09:30:00,
2013-01-15 03:35:00,11.9,6.9,30.28,SSW,211,3.0,4.0,80,0.00,,,0.00,0,Wunderground v.1.15,2013-01-15 09:35:00,
2013-01-15 03:40:00,11.9,6.9,30.28,SSW,212,3.0,4.0,80,0.00,,,0.00,0,Wunderground v.1.15,2013-01-15 09:40:00,
2013-01-15 03:45:00,11.9,6.9,30.28,SSW,211,3.0,4.0,80,0.00,,,0.00,0,Wunderground v.1.15,2013-01-15 09:45:00,
2013-01-15 03:50:00,11.8,6.8,30.28,SSW,212,3.0,3.0,80,0.00,,,0.00,0,Wunderground v.1.15,2013-01-15 09:50:00,
2013-01-15 03:55:00,11.8,6.8,30.28,SSW,211,2.0,3.0,80,0.00,,,0.00,0,Wunderground v.1.15,2013-01-15 09:55:00,
2013-01-15 04:00:00,11.8,6.8,30.27,SSW,211,2.0,2.0,80,0.00,,,0.00,0,Wunderground v.1.15,2013-01-15 10:00:00,
2013-01-15 04:05:00,11.7,6.7,30.27,SSW,211,3.0,3.0,80,0.00,,,0.00,0,Wunderground v.1.15,2013-01-15 10:05:00,
2013-01-15 04:15:00,11.5,6.5,30.27,SSW,211,2.0,2.0,80,0.00,,,0.00,0,Wunderground v.1.15,2013-01-15 10:15:00,
2013-01-15 04:20:00,11.4,6.4,30.27,SSW,211,2.0,3.0,80,0.00,,,0.00,0,Wunderground v.1.15,2013-01-15 10:20:00,
2013-01-15 04:25:00,11.3,6.3,30.27,SSW,212,1.0,3.0,80,0.00,,,0.00,0,Wunderground v.1.15,2013-01-15 10:25:00,
2013-01-15 04:30:00,11.2,6.2,30.27,SSW,212,1.0,2.0,80,0.00,,,0.00,0,Wunderground v.1.15,2013-01-15 10:30:00,
2013-01-15 04:35:00,11.2,6.2,30.27,SSW,212,1.0,2.0,80,0.00,,,0.00,0,Wunderground v.1.15,2013-01-15 10:35:00,
2013-01-15 04:45:00,10.7,5.7,30.26,SSW,211,0.0,1.0,80,0.00,,,0.00,0,Wunderground v.1.15,2013-01-15 10:45:00,
2013-01-15 04:50:00,10.4,5.5,30.26,SSW,212,0.0,0.0,80,0.00,,,0.00,0,Wunderground v.1.15,2013-01-15 10:50:00,
2013-01-15 04:55:00,10.3,5.6,30.26,SSW,212,1.0,1.0,81,0.00,,,0.00,0,Wunderground v.1.15,2013-01-15 10:55:00,
2013-01-15 05:00:00,10.1,5.4,30.26,SSW,211,1.0,1.0,81,0.00,,,0.00,0,Wunderground v.1.15,2013-01-15 11:00:00,
2013-01-15 05:05:00,9.9,5.2,30.26,SSW,212,1.0,1.0,81,0.00,,,0.00,0,Wunderground v.1.15,2013-01-15 11:05:00,
2013-01-15 05:15:00,9.9,5.2,30.26,SSW,212,1.0,1.0,81,0.00,,,0.00,0,Wunderground v.1.15,2013-01-15 11:15:00,
2013-01-15 05:20:00,9.8,5.1,30.26,SSW,211,1.0,1.0,81,0.00,,,0.00,0,Wunderground v.1.15,2013-01-15 11:20:00,
2013-01-15 05:25:00,9.8,5.4,30.26,SSW,212,1.0,1.0,82,0.00,,,0.00,0,Wunderground v.1.15,2013-01-15 11:25:00,
2013-01-15 05:30:00,9.7,5.3,30.25,SSW,212,1.0,1.0,82,0.00,,,0.00,0,Wunderground v.1.15,2013-01-15 11:30:00,
2013-01-15 05:35:00,9.7,5.3,30.25,SSW,211,2.0,2.0,82,0.00,,,0.00,0,Wunderground v.1.15,2013-01-15 11:35:00,
2013-01-15 05:40:00,9.6,5.2,30.25,SSW,212,1.0,4.0,82,0.00,,,0.00,0,Wunderground v.1.15,2013-01-15 11:40:00,
2013-01-15 05:50:00,9.5,5.1,30.26,SSW,212,2.0,2.0,82,0.00,,,0.00,0,Wunderground v.1.15,2013-01-15 11:50:00,
2013-01-15 06:00:00,9.2,4.8,30.25,SSW,212,1.0,2.0,82,0.00,,,0.00,0,Wunderground v.1.15,2013-01-15 12:00:00,
2013-01-15 06:05:00,9.2,4.8,30.25,SSW,212,1.0,4.0,82,0.00,,,0.00,0,Wunderground v.1.15,2013-01-15 12:05:00,
2013-01-15 06:15:00,9.3,5.2,30.25,SSW,212,1.0,2.0,83,0.00,,,0.00,0,Wunderground v.1.15,2013-01-15 12:15:00,
2013-01-15 06:25:00,9.2,5.1,30.25,SSW,212,1.0,1.0,83,0.00,,,0.00,0,Wunderground v.1.15,2013-01-15 12:25:00,
2013-01-15 06:30:00,9.2,5.1,30.25,SSW,212,1.0,1.0,83,0.00,,,0.00,0,Wunderground v.1.15,2013-01-15 12:30:00,
2013-01-15 06:35:00,9.2,5.1,30.25,SSW,211,1.0,1.0,83,0.00,,,0.00,0,Wunderground v.1.15,2013-01-15 12:35:00,
2013-01-15 06:40:00,9.3,5.2,30.25,SSW,212,1.0,2.0,83,0.00,,,0.00,0,Wunderground v.1.15,2013-01-15 12:40:00,
2013-01-15 06:45:00,9.3,5.2,30.25,SSW,212,1.0,2.0,83,0.00,,,0.00,0,Wunderground v.1.15,2013-01-15 12:45:00,
2013-01-15 06:55:00,9.5,5.4,30.25,SSW,212,2.0,2.0,83,0.00,,,0.00,0,Wunderground v.1.15,2013-01-15 12:55:00,
2013-01-15 07:00:00,9.6,5.5,30.24,SSW,212,2.0,2.0,83,0.00,,,0.00,0,Wunderground v.1.15,2013-01-15 13:00:00,
2013-01-15 07:05:00,9.6,5.5,30.24,SSW,211,2.0,2.0,83,0.00,,,0.00,0,Wunderground v.1.15,2013-01-15 13:05:00,
2013-01-15 07:15:00,9.6,5.5,30.24,SSW,211,2.0,2.0,83,0.00,,,0.00,0,Wunderground v.1.15,2013-01-15 13:15:00,
2013-01-15 07:20:00,9.8,5.7,30.24,SSW,211,2.0,2.0,83,0.00,,,0.00,0,Wunderground v.1.15,2013-01-15 13:20:00,
2013-01-15 07:30:00,9.9,6.0,30.25,SSW,211,3.0,3.0,84,0.00,,,0.00,0,Wunderground v.1.15,2013-01-15 13:30:00,
2013-01-15 07:35:00,10.1,6.2,30.25,SSW,212,4.0,4.0,84,0.00,,,0.00,0,Wunderground v.1.15,2013-01-15 13:35:00,
2013-01-15 07:40:00,10.2,6.3,30.25,SSW,211,4.0,4.0,84,0.00,,,0.00,0,Wunderground v.1.15,2013-01-15 13:40:00,
2013-01-15 07:45:00,10.3,6.4,30.25,SSW,211,3.0,4.0,84,0.00,,,0.00,0,Wunderground v.1.15,2013-01-15 13:45:00,
2013-01-15 07:50:00,10.3,6.2,30.25,SSW,212,3.0,3.0,83,0.00,,,0.00,0,Wunderground v.1.15,2013-01-15 13:50:00,
2013-01-15 08:00:00,10.2,6.1,30.26,SSW,212,2.0,2.0,83,0.00,,,0.00,11,Wunderground v.1.15,2013-01-15 14:00:00,
2013-01-15 08:05:00,10.2,6.1,30.26,SSW,212,2.0,2.0,83,0.00,,,0.00,14,Wunderground v.1.15,2013-01-15 14:05:00,
2013-01-15 08:15:00,10.1,6.0,30.25,SSW,211,1.0,2.0,83,0.00,,,0.00,28,Wunderground v.1.15,2013-01-15 14:15:00,
2013-01-15 08:20:00,10.3,6.2,30.25,SSW,212,2.0,2.0,83,0.00,,,0.00,37,Wunderground v.1.15,2013-01-15 14:20:00,
2013-01-15 08:25:00,10.5,6.6,30.25,SSW,211,2.0,2.0,84,0.00,,,0.00,47,Wunderground v.1.15,2013-01-15 14:25:00,
2013-01-15 08:35:00,11.1,7.2,30.25,SSW,212,2.0,3.0,84,0.00,,,0.00,58,Wunderground v.1.15,2013-01-15 14:35:00,
2013-01-15 08:40:00,11.4,7.5,30.25,SSW,212,3.0,3.0,84,0.00,,,0.00,67,Wunderground v.1.15,2013-01-15 14:40:00,
2013-01-15 08:45:00,11.8,7.6,30.26,SSW,211,3.0,5.0,83,0.00,,,0.00,62,Wunderground v.1.15,2013-01-15 14:45:00,
2013-01-15 08:50:00,12.1,7.9,30.26,SSW,212,4.0,4.0,83,0.00,,,0.00,53,Wunderground v.1.15,2013-01-15 14:50:00,
2013-01-15 08:55:00,12.3,8.1,30.26,SSW,212,4.0,4.0,83,0.00,,,0.00,37,Wunderground v.1.15,2013-01-15 14:55:00,
2013-01-15 09:00:00,12.5,8.3,30.25,SSW,211,3.0,3.0,83,0.00,,,0.00,32,Wunderground v.1.15,2013-01-15 15:00:00,
2013-01-15 09:05:00,12.7,8.5,30.25,SSW,211,3.0,3.0,83,0.00,,,0.00,32,Wunderground v.1.15,2013-01-15 15:05:00,
2013-01-15 09:15:00,13.2,8.7,30.25,SSW,212,3.0,6.0,82,0.00,,,0.00,47,Wunderground v.1.15,2013-01-15 15:15:00,
2013-01-15 09:20:00,13.6,9.1,30.25,SSW,211,3.0,4.0,82,0.00,,,0.00,190,Wunderground v.1.15,2013-01-15 15:20:00,
2013-01-15 09:25:00,14.2,9.7,30.25,SSW,211,3.0,4.0,82,0.00,,,0.00,200,Wunderground v.1.15,2013-01-15 15:25:00,
2013-01-15 09:30:00,14.7,9.9,30.24,SSW,212,3.0,3.0,81,0.00,,,0.00,211,Wunderground v.1.15,2013-01-15 15:30:00,
2013-01-15 09:35:00,15.0,9.9,30.24,SSW,212,3.0,3.0,80,0.00,,,0.00,221,Wunderground v.1.15,2013-01-15 15:35:00,
2013-01-15 09:40:00,15.3,10.0,30.24,SSW,212,4.0,4.0,79,0.00,,,0.00,232,Wunderground v.1.15,2013-01-15 15:40:00,
2013-01-15 09:45:00,15.5,9.9,30.23,SSW,212,4.0,4.0,78,0.00,,,0.00,243,Wunderground v.1.15,2013-01-15 15:45:00,
2013-01-15 09:50:00,15.9,10.3,30.23,SSW,211,4.0,4.0,78,0.00,,,0.00,253,Wunderground v.1.15,2013-01-15 15:50:00,
2013-01-15 09:55:00,16.0,10.1,30.23,SSW,212,4.0,4.0,77,0.00,,,0.00,264,Wunderground v.1.15,2013-01-15 15:55:00,
2013-01-15 10:00:00,16.3,10.4,30.23,SSW,212,4.0,6.0,77,0.00,,,0.00,274,Wunderground v.1.15,2013-01-15 16:00:00,
2013-01-15 10:05:00,16.5,10.3,30.23,SSW,212,4.0,7.0,76,0.00,,,0.00,287,Wunderground v.1.15,2013-01-15 16:05:00,
2013-01-15 10:15:00,16.9,10.6,30.22,SSW,212,6.0,6.0,76,0.00,,,0.00,304,Wunderground v.1.15,2013-01-15 16:15:00,
2013-01-15 10:20:00,17.3,10.7,30.22,SSW,211,5.0,5.0,75,0.00,,,0.00,313,Wunderground v.1.15,2013-01-15 16:20:00,
2013-01-15 10:25:00,17.6,11.0,30.22,SSW,212,4.0,5.0,75,0.00,,,0.00,320,Wunderground v.1.15,2013-01-15 16:25:00,
2013-01-15 10:30:00,17.8,10.9,30.22,SSW,212,5.0,7.0,74,0.00,,,0.00,329,Wunderground v.1.15,2013-01-15 16:30:00,
2013-01-15 10:35:00,17.8,10.6,30.22,SSW,211,6.0,7.0,73,0.00,,,0.00,336,Wunderground v.1.15,2013-01-15 16:35:00,
2013-01-15 10:40:00,18.0,10.8,30.22,SSW,212,6.0,6.0,73,0.00,,,0.00,343,Wunderground v.1.15,2013-01-15 16:40:00,
2013-01-15 10:45:00,18.4,11.2,30.22,SSW,212,6.0,6.0,73,0.00,,,0.00,348,Wunderground v.1.15,2013-01-15 16:45:00,
2013-01-15 10:50:00,18.8,11.3,30.22,SSW,212,5.0,6.0,72,0.00,,,0.00,355,Wunderground v.1.15,2013-01-15 16:50:00,
2013-01-15 10:55:00,19.0,11.1,30.22,SSW,212,5.0,6.0,71,0.00,,,0.00,359,Wunderground v.1.15,2013-01-15 16:55:00,
2013-01-15 11:00:00,19.4,11.5,30.21,SSW,212,5.0,5.0,71,0.00,,,0.00,366,Wunderground v.1.15,2013-01-15 17:00:00,
2013-01-15 11:05:00,19.7,11.5,30.21,SSW,212,5.0,5.0,70,0.00,,,0.00,371,Wunderground v.1.15,2013-01-15 17:05:00,
2013-01-15 11:15:00,20.2,11.7,30.20,SSW,212,6.0,7.0,69,0.00,,,0.00,381,Wunderground v.1.15,2013-01-15 17:15:00,
2013-01-15 11:20:00,20.3,11.1,30.20,SSW,211,8.0,8.0,67,0.00,,,0.00,387,Wunderground v.1.15,2013-01-15 17:20:00,
2013-01-15 11:30:00,20.8,11.6,30.19,SSW,212,7.0,7.0,67,0.00,,,0.00,396,Wunderground v.1.15,2013-01-15 17:30:00,
2013-01-15 11:35:00,20.9,11.7,30.19,SSW,212,7.0,7.0,67,0.00,,,0.00,399,Wunderground v.1.15,2013-01-15 17:35:00,
2013-01-15 11:45:00,21.2,11.9,30.19,SSW,212,7.0,10.0,67,0.00,,,0.00,406,Wunderground v.1.15,2013-01-15 17:45:00,
2013-01-15 11:50:00,21.4,11.8,30.19,SSW,211,7.0,9.0,66,0.00,,,0.00,408,Wunderground v.1.15,2013-01-15 17:50:00,
2013-01-15 11:55:00,21.6,12.0,30.19,SSW,212,7.0,10.0,66,0.00,,,0.00,411,Wunderground v.1.15,2013-01-15 17:55:00,
2013-01-15 12:00:00,21.7,12.1,30.17,SSW,212,7.0,7.0,66,0.00,,,0.00,413,Wunderground v.1.15,2013-01-15 18:00:00,
2013-01-15 12:05:00,22.0,12.4,30.17,SSW,212,7.0,7.0,66,0.00,,,0.00,415,Wunderground v.1.15,2013-01-15 18:05:00,
2013-01-15 12:15:00,22.2,12.2,30.17,SSW,212,7.0,7.0,65,0.00,,,0.00,415,Wunderground v.1.15,2013-01-15 18:15:00,
2013-01-15 12:20:00,22.1,12.1,30.17,SSW,211,7.0,8.0,65,0.00,,,0.00,415,Wunderground v.1.15,2013-01-15 18:20:00,
2013-01-15 12:25:00,22.4,12.8,30.17,SSW,211,7.0,10.0,66,0.00,,,0.00,417,Wunderground v.1.15,2013-01-15 18:25:00,
2013-01-15 12:30:00,22.6,12.9,30.16,SSW,212,7.0,7.0,66,0.00,,,0.00,417,Wunderground v.1.15,2013-01-15 18:30:00,
2013-01-15 12:35:00,22.9,13.2,30.16,SSW,212,7.0,11.0,66,0.00,,,0.00,417,Wunderground v.1.15,2013-01-15 18:35:00,
2013-01-15 12:40:00,23.1,13.1,30.16,SSW,212,7.0,10.0,65,0.00,,,0.00,417,Wunderground v.1.15,2013-01-15 18:40:00,
2013-01-15 12:50:00,23.4,13.0,30.14,SSW,211,8.0,8.0,64,0.00,,,0.00,415,Wunderground v.1.15,2013-01-15 18:50:00,
2013-01-15 12:55:00,23.8,13.4,30.14,SSW,212,7.0,8.0,64,0.00,,,0.00,413,Wunderground v.1.15,2013-01-15 18:55:00,
2013-01-15 13:00:00,23.9,13.1,30.13,SSW,212,7.0,7.0,63,0.00,,,0.00,410,Wunderground v.1.15,2013-01-15 19:00:00,
2013-01-15 13:05:00,24.2,13.0,30.13,SSW,212,7.0,8.0,62,0.00,,,0.00,410,Wunderground v.1.15,2013-01-15 19:05:00,
2013-01-15 13:15:00,24.4,13.2,30.12,SSW,212,8.0,10.0,62,0.00,,,0.00,403,Wunderground v.1.15,2013-01-15 19:15:00,
2013-01-15 13:25:00,24.9,13.3,30.12,SSW,212,6.0,7.0,61,0.00,,,0.00,397,Wunderground v.1.15,2013-01-15 19:25:00,
2013-01-15 13:30:00,25.0,13.4,30.12,SSW,211,7.0,7.0,61,0.00,,,0.00,392,Wunderground v.1.15,2013-01-15 19:30:00,
2013-01-15 13:35:00,25.1,13.2,30.12,SSW,211,7.0,7.0,60,0.00,,,0.00,387,Wunderground v.1.15,2013-01-15 19:35:00,
2013-01-15 13:40:00,25.3,13.3,30.12,SSW,211,7.0,7.0,60,0.00,,,0.00,381,Wunderground v.1.15,2013-01-15 19:40:00,
2013-01-15 13:45:00,25.5,13.5,30.12,SSW,211,7.0,7.0,60,0.00,,,0.00,376,Wunderground v.1.15,2013-01-15 19:45:00,
2013-01-15 13:55:00,26.0,13.2,30.12,SSW,211,6.0,7.0,58,0.00,,,0.00,366,Wunderground v.1.15,2013-01-15 19:55:00,
2013-01-15 14:00:00,26.2,13.4,30.11,SSW,211,6.0,6.0,58,0.00,,,0.00,359,Wunderground v.1.15,2013-01-15 20:00:00,
2013-01-15 14:05:00,26.2,13.4,30.11,SSW,211,6.0,6.0,58,0.00,,,0.00,353,Wunderground v.1.15,2013-01-15 20:05:00,
2013-01-15 14:15:00,26.4,13.6,30.11,SSW,198,7.0,7.0,58,0.00,,,0.00,339,Wunderground v.1.15,2013-01-15 20:15:00,
2013-01-15 14:20:00,26.6,13.8,30.11,SSW,198,7.0,7.0,58,0.00,,,0.00,332,Wunderground v.1.15,2013-01-15 20:20:00,
2013-01-15 14:30:00,26.8,14.0,30.10,SSW,198,7.0,7.0,58,0.00,,,0.00,316,Wunderground v.1.15,2013-01-15 20:30:00,
2013-01-15 14:35:00,27.0,14.2,30.10,SSW,198,6.0,7.0,58,0.00,,,0.00,309,Wunderground v.1.15,2013-01-15 20:35:00,
2013-01-15 14:40:00,27.4,14.1,30.10,SSW,198,6.0,7.0,57,0.00,,,0.00,301,Wunderground v.1.15,2013-01-15 20:40:00,
2013-01-15 14:45:00,27.4,14.1,30.09,SSW,198,6.0,7.0,57,0.00,,,0.00,292,Wunderground v.1.15,2013-01-15 20:45:00,
2013-01-15 14:50:00,27.6,14.3,30.09,SSW,198,6.0,6.0,57,0.00,,,0.00,283,Wunderground v.1.15,2013-01-15 20:50:00,
2013-01-15 15:00:00,27.7,14.0,30.09,SSW,199,7.0,7.0,56,0.00,,,0.00,265,Wunderground v.1.15,2013-01-15 21:00:00,
2013-01-15 15:05:00,27.8,14.1,30.09,SSW,194,7.0,7.0,56,0.00,,,0.00,253,Wunderground v.1.15,2013-01-15 21:05:00,
2013-01-15 15:15:00,28.3,15.0,30.09,SSW,202,5.0,7.0,57,0.00,,,0.00,234,Wunderground v.1.15,2013-01-15 21:15:00,
2013-01-15 15:20:00,28.3,15.4,30.09,SSW,200,6.0,7.0,58,0.00,,,0.00,221,Wunderground v.1.15,2013-01-15 21:20:00,
2013-01-15 15:25:00,28.3,15.4,30.09,SSW,200,7.0,8.0,58,0.00,,,0.00,211,Wunderground v.1.15,2013-01-15 21:25:00,
2013-01-15 15:35:00,28.5,16.0,30.08,SSW,200,6.0,7.0,59,0.00,,,0.00,188,Wunderground v.1.15,2013-01-15 21:35:00,
2013-01-15 15:40:00,28.6,16.5,30.08,SSW,200,6.0,6.0,60,0.00,,,0.00,178,Wunderground v.1.15,2013-01-15 21:40:00,
2013-01-15 15:45:00,28.7,16.6,30.08,SSW,200,6.0,6.0,60,0.00,,,0.00,165,Wunderground v.1.15,2013-01-15 21:45:00,
2013-01-15 15:50:00,28.7,16.9,30.08,SSW,200,5.0,7.0,61,0.00,,,0.00,155,Wunderground v.1.15,2013-01-15 21:50:00,
2013-01-15 15:55:00,28.7,17.3,30.08,SSW,199,6.0,7.0,62,0.00,,,0.00,139,Wunderground v.1.15,2013-01-15 21:55:00,
2013-01-15 16:00:00,28.7,17.3,30.07,SSW,200,6.0,6.0,62,0.00,,,0.00,107,Wunderground v.1.15,2013-01-15 22:00:00,
2013-01-15 16:05:00,28.6,17.2,30.07,SSW,200,7.0,11.0,62,0.00,,,0.00,107,Wunderground v.1.15,2013-01-15 22:05:00,
2013-01-15 16:15:00,28.5,17.5,30.07,SSW,199,6.0,8.0,63,0.00,,,0.00,83,Wunderground v.1.15,2013-01-15 22:15:00,
2013-01-15 16:20:00,28.5,17.5,30.07,SSW,200,6.0,6.0,63,0.00,,,0.00,70,Wunderground v.1.15,2013-01-15 22:20:00,
2013-01-15 16:25:00,28.4,17.8,30.07,SSW,200,6.0,7.0,64,0.00,,,0.00,63,Wunderground v.1.15,2013-01-15 22:25:00,
2013-01-15 16:30:00,28.3,18.0,30.07,SSW,200,7.0,7.0,65,0.00,,,0.00,49,Wunderground v.1.15,2013-01-15 22:30:00,
2013-01-15 16:35:00,28.2,17.9,30.07,SSW,200,7.0,7.0,65,0.00,,,0.00,35,Wunderground v.1.15,2013-01-15 22:35:00,
2013-01-15 16:40:00,28.1,17.8,30.07,SSW,200,7.0,7.0,65,0.00,,,0.00,26,Wunderground v.1.15,2013-01-15 22:40:00,
2013-01-15 16:45:00,27.9,17.6,30.07,SSW,200,7.0,7.0,65,0.00,,,0.00,18,Wunderground v.1.15,2013-01-15 22:45:00,
2013-01-15 16:50:00,27.6,17.7,30.07,SSW,200,6.0,6.0,66,0.00,,,0.00,11,Wunderground v.1.15,2013-01-15 22:50:00,
2013-01-15 17:00:00,27.3,17.4,30.06,SSW,200,6.0,6.0,66,0.00,,,0.00,0,Wunderground v.1.15,2013-01-15 23:00:00,
2013-01-15 17:05:00,27.1,17.2,30.06,SSW,199,6.0,6.0,66,0.00,,,0.00,0,Wunderground v.1.15,2013-01-15 23:05:00,
2013-01-15 17:15:00,26.7,16.9,30.06,SSW,200,5.0,7.0,66,0.00,,,0.00,0,Wunderground v.1.15,2013-01-15 23:15:00,
2013-01-15 17:20:00,26.4,16.9,30.06,SSW,199,4.0,7.0,67,0.00,,,0.00,0,Wunderground v.1.15,2013-01-15 23:20:00,
2013-01-15 17:25:00,26.2,16.7,30.06,SSW,200,4.0,7.0,67,0.00,,,0.00,0,Wunderground v.1.15,2013-01-15 23:25:00,
2013-01-15 17:30:00,26.1,16.6,30.05,SSW,200,5.0,5.0,67,0.00,,,0.00,0,Wunderground v.1.15,2013-01-15 23:30:00,
2013-01-15 17:35:00,26.0,16.5,30.05,SSW,200,5.0,5.0,67,0.00,,,0.00,0,Wunderground v.1.15,2013-01-15 23:35:00,
2013-01-15 17:45:00,25.8,16.0,30.04,SSW,200,5.0,7.0,66,0.00,,,0.00,0,Wunderground v.1.15,2013-01-15 23:45:00,
2013-01-15 17:50:00,25.8,16.0,30.04,SSW,200,5.0,6.0,66,0.00,,,0.00,0,Wunderground v.1.15,2013-01-15 23:50:00,
2013-01-15 17:55:00,25.8,15.6,30.04,SSW,200,6.0,6.0,65,0.00,,,0.00,0,Wunderground v.1.15,2013-01-15 23:55:00,
2013-01-15 18:00:00,25.6,15.5,30.04,SSW,199,5.0,5.0,65,0.00,,,0.00,0,Wunderground v.1.15,2013-01-16 00:00:00,
2013-01-15 18:05:00,25.5,15.4,30.04,SSW,199,5.0,5.0,65,0.00,,,0.00,0,Wunderground v.1.15,2013-01-16 00:05:00,
2013-01-15 18:15:00,25.3,15.2,30.03,SSW,200,5.0,5.0,65,0.00,,,0.00,0,Wunderground v.1.15,2013-01-16 00:15:00,
2013-01-15 18:20:00,25.1,15.0,30.03,SSW,199,4.0,4.0,65,0.00,,,0.00,0,Wunderground v.1.15,2013-01-16 00:20:00,
2013-01-15 18:25:00,25.0,14.9,30.03,SSW,200,4.0,4.0,65,0.00,,,0.00,0,Wunderground v.1.15,2013-01-16 00:25:00,
2013-01-15 18:30:00,24.8,14.7,30.02,SSW,200,4.0,4.0,65,0.00,,,0.00,0,Wunderground v.1.15,2013-01-16 00:30:00,
2013-01-15 18:35:00,24.8,14.7,30.02,SSW,199,4.0,5.0,65,0.00,,,0.00,0,Wunderground v.1.15,2013-01-16 00:35:00,
2013-01-15 18:40:00,24.7,14.6,30.02,SSW,200,5.0,5.0,65,0.00,,,0.00,0,Wunderground v.1.15,2013-01-16 00:40:00,
2013-01-15 18:50:00,24.5,14.4,30.02,SSW,200,4.0,4.0,65,0.00,,,0.00,0,Wunderground v.1.15,2013-01-16 00:50:00,
2013-01-15 18:55:00,24.3,14.2,30.02,SSW,200,4.0,5.0,65,0.00,,,0.00,0,Wunderground v.1.15,2013-01-16 00:55:00,
2013-01-15 19:00:00,24.1,14.0,30.00,SSW,199,3.0,6.0,65,0.00,,,0.00,0,Wunderground v.1.15,2013-01-16 01:00:00,
2013-01-15 19:05:00,23.9,13.8,30.00,SSW,199,3.0,6.0,65,0.00,,,0.00,0,Wunderground v.1.15,2013-01-16 01:05:00,
2013-01-15 19:15:00,23.7,14.0,30.00,SSW,199,3.0,3.0,66,0.00,,,0.00,0,Wunderground v.1.15,2013-01-16 01:15:00,
2013-01-15 19:20:00,23.3,13.6,30.00,SSW,200,2.0,2.0,66,0.00,,,0.00,0,Wunderground v.1.15,2013-01-16 01:20:00,
2013-01-15 19:25:00,23.3,13.6,30.00,SSW,200,3.0,3.0,66,0.00,,,0.00,0,Wunderground v.1.15,2013-01-16 01:25:00,
2013-01-15 19:30:00,23.1,13.4,29.99,SSW,200,3.0,3.0,66,0.00,,,0.00,0,Wunderground v.1.15,2013-01-16 01:30:00,
2013-01-15 19:40:00,22.8,13.5,29.99,SSW,199,2.0,3.0,67,0.00,,,0.00,0,Wunderground v.1.15,2013-01-16 01:40:00,
2013-01-15 19:45:00,23.2,13.9,29.98,SSW,200,3.0,5.0,67,0.00,,,0.00,0,Wunderground v.1.15,2013-01-16 01:45:00,
2013-01-15 19:50:00,23.6,14.2,29.98,SSW,199,4.0,4.0,67,0.00,,,0.00,0,Wunderground v.1.15,2013-01-16 01:50:00,
2013-01-15 19:55:00,24.0,14.3,29.98,SSW,200,5.0,6.0,66,0.00,,,0.00,0,Wunderground v.1.15,2013-01-16 01:55:00,
2013-01-15 20:05:00,24.4,14.7,29.97,SSW,199,6.0,6.0,66,0.00,,,0.00,0,Wunderground v.1.15,2013-01-16 02:05:00,
2013-01-15 20:15:00,24.5,14.8,29.95,SSW,199,6.0,7.0,66,0.00,,,0.00,0,Wunderground v.1.15,2013-01-16 02:15:00,
2013-01-15 20:20:00,24.5,14.8,29.95,SSW,200,6.0,6.0,66,0.00,,,0.00,0,Wunderground v.1.15,2013-01-16 02:20:00,
2013-01-15 20:25:00,24.5,14.8,29.95,SSW,199,6.0,6.0,66,0.00,,,0.00,0,Wunderground v.1.15,2013-01-16 02:25:00,
2013-01-15 20:30:00,24.6,14.9,29.93,SSW,200,6.0,6.0,66,0.00,,,0.00,0,Wunderground v.1.15,2013-01-16 02:30:00,
2013-01-15 20:35:00,24.6,15.2,29.93,SSW,200,6.0,8.0,67,0.00,,,0.00,0,Wunderground v.1.15,2013-01-16 02:35:00,
2013-01-15 20:40:00,24.7,15.3,29.93,SSW,200,7.0,7.0,67,0.00,,,0.00,0,Wunderground v.1.15,2013-01-16 02:40:00,
2013-01-15 20:45:00,24.7,15.3,29.92,SSW,199,7.0,7.0,67,0.00,,,0.00,0,Wunderground v.1.15,2013-01-16 02:45:00,
2013-01-15 20:55:00,24.9,15.5,29.92,SSW,200,7.0,7.0,67,0.00,,,0.00,0,Wunderground v.1.15,2013-01-16 02:55:00,
2013-01-15 21:00:00,24.9,15.1,29.92,SSW,200,8.0,8.0,66,0.00,,,0.00,0,Wunderground v.1.15,2013-01-16 03:00:00,
2013-01-15 21:05:00,25.0,15.2,29.92,SSW,200,7.0,8.0,66,0.00,,,0.00,0,Wunderground v.1.15,2013-01-16 03:05:00,
2013-01-15 21:15:00,24.9,15.5,29.91,SSW,199,7.0,7.0,67,0.00,,,0.00,0,Wunderground v.1.15,2013-01-16 03:15:00,
2013-01-15 21:20:00,24.9,15.1,29.91,SSW,200,7.0,7.0,66,0.00,,,0.00,0,Wunderground v.1.15,2013-01-16 03:20:00,
2013-01-15 21:30:00,24.8,15.4,29.91,SSW,200,7.0,8.0,67,0.00,,,0.00,0,Wunderground v.1.15,2013-01-16 03:30:00,
2013-01-15 21:35:00,24.7,15.3,29.91,SSW,200,6.0,8.0,67,0.00,,,0.00,0,Wunderground v.1.15,2013-01-16 03:35:00,
2013-01-15 21:40:00,24.7,15.6,29.91,SSW,199,7.0,7.0,68,0.00,,,0.00,0,Wunderground v.1.15,2013-01-16 03:40:00,
2013-01-15 21:45:00,24.6,15.5,29.89,SSW,200,7.0,9.0,68,0.00,,,0.00,0,Wunderground v.1.15,2013-01-16 03:45:00,
2013-01-15 21:50:00,24.5,15.8,29.89,SSW,200,7.0,7.0,69,0.00,,,0.00,0,Wunderground v.1.15,2013-01-16 03:50:00,
2013-01-15 22:00:00,24.4,16.0,29.89,SSW,200,6.0,10.0,70,0.00,,,0.00,0,Wunderground v.1.15,2013-01-16 04:00:00,
2013-01-15 22:05:00,24.5,16.1,29.89,SSW,199,7.0,10.0,70,0.00,,,0.00,0,Wunderground v.1.15,2013-01-16 04:05:00,
2013-01-15 22:15:00,24.6,16.5,29.87,SSW,200,7.0,8.0,71,0.00,,,0.00,0,Wunderground v.1.15,2013-01-16 04:15:00,
2013-01-15 22:20:00,24.7,16.3,29.87,SSW,200,8.0,8.0,70,0.00,,,0.00,0,Wunderground v.1.15,2013-01-16 04:20:00,
2013-01-15 22:25:00,24.7,16.3,29.87,SSW,200,7.0,11.0,70,0.00,,,0.00,0,Wunderground v.1.15,2013-01-16 04:25:00,
2013-01-15 22:35:00,24.9,16.5,29.86,SSW,200,8.0,8.0,70,0.00,,,0.00,0,Wunderground v.1.15,2013-01-16 04:35:00,
2013-01-15 22:40:00,25.1,16.7,29.86,SSW,199,8.0,8.0,70,0.00,,,0.00,0,Wunderground v.1.15,2013-01-16 04:40:00,
2013-01-15 22:45:00,25.2,16.5,29.84,SSW,199,8.0,12.0,69,0.00,,,0.00,0,Wunderground v.1.15,2013-01-16 04:45:00,
2013-01-15 22:50:00,25.4,16.6,29.84,SSW,200,9.0,9.0,69,0.00,,,0.00,0,Wunderground v.1.15,2013-01-16 04:50:00,
2013-01-15 22:55:00,25.3,16.5,29.84,SSW,200,8.0,9.0,69,0.00,,,0.00,0,Wunderground v.1.15,2013-01-16 04:55:00,
2013-01-15 23:00:00,25.2,16.8,29.84,SSW,200,7.0,7.0,70,0.00,,,0.00,0,Wunderground v.1.15,2013-01-16 05:00:00,
2013-01-15 23:05:00,25.4,17.0,29.84,SSW,200,8.0,11.0,70,0.00,,,0.00,0,Wunderground v.1.15,2013-01-16 05:05:00,
2013-01-15 23:10:00,25.4,17.0,29.84,SSW,199,9.0,9.0,70,0.00,,,0.00,0,Wunderground v.1.15,2013-01-16 05:10:00,
2013-01-15 23:15:00,25.4,17.0,29.84,SSW,200,9.0,16.0,70,0.00,,,0.00,0,Wunderground v.1.15,2013-01-16 05:15:00,
2013-01-15 23:20:00,25.4,17.0,29.84,SSW,200,10.0,15.0,70,0.00,,,0.00,0,Wunderground v.1.15,2013-01-16 05:20:00,
2013-01-15 23:25:00,25.5,16.7,29.84,SSW,199,10.0,15.0,69,0.00,,,0.00,0,Wunderground v.1.15,2013-01-16 05:25:00,
2013-01-15 23:35:00,25.6,16.8,29.82,SSW,200,9.0,12.0,69,0.00,,,0.00,0,Wunderground v.1.15,2013-01-16 05:35:00,
2013-01-15 23:40:00,25.6,16.8,29.82,SSW,199,10.0,11.0,69,0.00,,,0.00,0,Wunderground v.1.15,2013-01-16 05:40:00,
2013-01-15 23:50:00,25.6,16.8,29.81,SSW,199,9.0,13.0,69,0.00,,,0.00,0,Wunderground v.1.15,2013-01-16 05:50:00,
2013-01-15 23:55:00,25.7,16.9,29.81,SSW,200,10.0,13.0,69,0.00,,,0.00,0,Wunderground v.1.15,2013-01-16 05:55:00,